| time (UTC) | temp C | wind direction | speed KPH | gust KPH | rain 1hr cm | rain 24hr cm | rain mn cm | humidity % | barometer mb |
| 20260504221507 | 23 | 52 | 9.7 | 27.4 | 0.00 | 0.00 | 0.00 | 31 | 1005.3 |
| 20260504220014 | 23 | 294 | 14.5 | 29.0 | 0.00 | 0.00 | 0.00 | 31 | 1004.6 |
| 20260504214504 | 24 | 327 | 4.8 | 20.9 | 0.00 | 0.00 | 0.00 | 33 | 1004.6 |
| 20260504213002 | 24 | 309 | 4.8 | 12.9 | 0.00 | 0.00 | 0.00 | 33 | 1004.4 |
| 20260504211502 | 25 | 18 | 8.0 | 24.1 | 0.00 | 0.00 | 0.00 | 34 | 1004.1 |
| 20260504210003 | 25 | 322 | 8.0 | 25.7 | 0.00 | 0.00 | 0.00 | 35 | 1004.1 |
| 20260504204605 | 25 | 326 | 4.8 | 24.1 | 0.00 | 0.00 | 0.00 | 36 | 1004.2 |
| 20260504203103 | 26 | 49 | 3.2 | 24.1 | 0.00 | 0.00 | 0.00 | 34 | 1004.2 |
| 20260504201559 | 26 | 311 | 1.6 | 22.5 | 0.00 | 0.00 | 0.00 | 35 | 1004.1 |
| 20260504200059 | 26 | 295 | 3.2 | 12.9 | 0.00 | 0.00 | 0.00 | 32 | 1004.2 |
| 20260504194600 | 27 | 43 | 6.4 | 20.9 | 0.00 | 0.00 | 0.00 | 32 | 1004.1 |
| 20260504193113 | 27 | 49 | 6.4 | 19.3 | 0.00 | 0.00 | 0.00 | 31 | 1003.9 |
| 20260504191556 | 28 | 311 | 3.2 | 14.5 | 0.00 | 0.00 | 0.00 | 33 | 1003.8 |
| 20260504190106 | 27 | 18 | 4.8 | 14.5 | 0.00 | 0.00 | 0.00 | 30 | 1003.7 |
| 20260504184554 | 27 | 68 | 3.2 | 22.5 | 0.00 | 0.00 | 0.00 | 28 | 1003.8 |
| 20260504183059 | 27 | 304 | 8.0 | 22.5 | 0.00 | 0.00 | 0.00 | 28 | 1003.6 |
| 20260504181551 | 27 | 129 | 6.4 | 17.7 | 0.00 | 0.00 | 0.00 | 26 | 1003.7 |
| 20260504180127 | 27 | 285 | 8.0 | 19.3 | 0.00 | 0.00 | 0.00 | 25 | 1003.8 |
| 20260504174547 | 26 | 284 | 6.4 | 14.5 | 0.00 | 0.00 | 0.00 | 29 | 1003.8 |
| 20260504173046 | 26 | 257 | 1.6 | 14.5 | 0.00 | 0.00 | 0.00 | 29 | 1004.1 |
| 20260504171548 | 26 | 271 | 4.8 | 16.1 | 0.00 | 0.00 | 0.00 | 28 | 1004.1 |
| 20260504081558 | 12 | 209 | 0.0 | 1.6 | 0.00 | 0.00 | 0.00 | 60 | 1005.6 |
| 20260504050023 | 15 | 70 | 0.0 | 1.6 | 0.00 | 0.00 | 0.00 | 51 | 1008.5 |
| 20260504044533 | 15 | 72 | 0.0 | 3.2 | 0.00 | 0.00 | 0.00 | 52 | 1008.6 |
| 20260504043030 | 15 | 88 | 1.6 | 3.2 | 0.00 | 0.00 | 0.00 | 52 | 1008.7 |
| 20260504041518 | 16 | 94 | 0.0 | 3.2 | 0.00 | 0.00 | 0.00 | 50 | 1009.1 |
| 20260504040021 | 16 | 107 | 0.0 | 1.6 | 0.00 | 0.00 | 0.00 | 49 | 1009.4 |
| 20260504034516 | 16 | 122 | 0.0 | 3.2 | 0.00 | 0.00 | 0.00 | 48 | 1009.5 |
| 20260504033013 | 16 | 200 | 0.0 | 4.8 | 0.00 | 0.00 | 0.00 | 50 | 1009.9 |
| 20260504031517 | 17 | 79 | 0.0 | 1.6 | 0.00 | 0.00 | 0.00 | 47 | 1009.8 |
| 20260504030014 | 18 | 73 | 0.0 | 1.6 | 0.00 | 0.00 | 0.00 | 45 | 1009.8 |
| 20260504024512 | 18 | 72 | 0.0 | 3.2 | 0.00 | 0.00 | 0.00 | 44 | 1009.6 |
| 20260504023011 | 18 | 70 | 1.6 | 3.2 | 0.00 | 0.00 | 0.00 | 43 | 1009.7 |
| 20260504021513 | 19 | 172 | 0.0 | 4.8 | 0.00 | 0.00 | 0.00 | 44 | 1009.9 |
| 20260504020010 | 19 | 53 | 3.2 | 8.0 | 0.00 | 0.00 | 0.00 | 42 | 1010.0 |
| 20260504014509 | 20 | 44 | 3.2 | 6.4 | 0.00 | 0.00 | 0.00 | 40 | 1009.8 |
| 20260504013011 | 20 | 41 | 4.8 | 8.0 | 0.00 | 0.00 | 0.00 | 40 | 1009.9 |
| 20260504011507 | 20 | 54 | 3.2 | 6.4 | 0.00 | 0.00 | 0.00 | 40 | 1009.9 |
| 20260504010006 | 21 | 42 | 4.8 | 8.0 | 0.00 | 0.00 | 0.00 | 38 | 1010.0 |
| 20260504004515 | 21 | 37 | 4.8 | 9.7 | 0.00 | 0.00 | 0.00 | 36 | 1010.1 |
| 20260504003005 | 22 | 27 | 4.8 | 12.9 | 0.00 | 0.00 | 0.00 | 36 | 1010.2 |
| 20260504001504 | 22 | 81 | 3.2 | 6.4 | 0.00 | 0.00 | 0.00 | 32 | 1010.5 |
| 20260504000002 | 22 | 46 | 0.0 | 3.2 | 0.00 | 0.00 | 0.00 | 30 | 1010.7 |
| 20260503234600 | 22 | 49 | 1.6 | 3.2 | 0.00 | 0.00 | 0.00 | 32 | 1011.0 |
| 20260503233059 | 22 | 96 | 1.6 | 14.5 | 0.00 | 0.00 | 0.00 | 32 | 1011.1 |
| 20260503231604 | 22 | 91 | 8.0 | 16.1 | 0.00 | 0.00 | 0.00 | 32 | 1011.1 |
| 20260503230116 | 23 | 86 | 4.8 | 11.3 | 0.00 | 0.00 | 0.00 | 32 | 1011.1 |
| 20260503224603 | 23 | 44 | 1.6 | 6.4 | 0.00 | 0.00 | 0.00 | 30 | 1010.8 |
| 20260503223055 | 23 | 281 | 1.6 | 9.7 | 0.00 | 0.00 | 0.00 | 30 | 1011.3 |